sensor_id;sensor_type;location;lat;lon;timestamp;pressure;altitude;pressure_sealevel;temperature;humidity
7264;BME280;3673;52.480;13.348;2023-04-01T00:01:19;99241.56;;;15.23;60.18
7264;BME280;3673;52.480;13.348;2023-04-01T00:03:46;99244.34;;;15.39;60.00
7264;BME280;3673;52.480;13.348;2023-04-01T00:06:16;99248.47;;;15.26;60.93
7264;BME280;3673;52.480;13.348;2023-04-01T00:08:43;99247.53;;;15.27;60.78
7264;BME280;3673;52.480;13.348;2023-04-01T00:11:10;99236.44;;;15.39;60.65
7264;BME280;3673;52.480;13.348;2023-04-01T00:13:37;99245.75;;;15.48;60.44
7264;BME280;3673;52.480;13.348;2023-04-01T00:16:06;99243.13;;;15.27;60.38
7264;BME280;3673;52.480;13.348;2023-04-01T00:18:33;99251.03;;;15.27;60.65
7264;BME280;3673;52.480;13.348;2023-04-01T00:21:00;99252.53;;;15.33;60.46
7264;BME280;3673;52.480;13.348;2023-04-01T00:23:27;99250.47;;;15.39;60.46
7264;BME280;3673;52.480;13.348;2023-04-01T00:25:54;99252.13;;;15.42;60.29
7264;BME280;3673;52.480;13.348;2023-04-01T00:28:21;99246.88;;;15.22;60.53
7264;BME280;3673;52.480;13.348;2023-04-01T00:30:48;99241.53;;;15.43;60.09
7264;BME280;3673;52.480;13.348;2023-04-01T00:33:16;99241.56;;;15.42;59.90
7264;BME280;3673;52.480;13.348;2023-04-01T00:35:43;99254.50;;;15.28;60.08
7264;BME280;3673;52.480;13.348;2023-04-01T00:38:10;99240.34;;;15.30;60.22
7264;BME280;3673;52.480;13.348;2023-04-01T00:40:40;99249.91;;;15.33;60.58
7264;BME280;3673;52.480;13.348;2023-04-01T00:43:12;99245.41;;;15.15;61.17
7264;BME280;3673;52.480;13.348;2023-04-01T00:45:41;99253.09;;;15.01;61.47
7264;BME280;3673;52.480;13.348;2023-04-01T00:48:12;99249.13;;;15.31;61.13
7264;BME280;3673;52.480;13.348;2023-04-01T00:50:48;99252.53;;;15.13;61.27
7264;BME280;3673;52.480;13.348;2023-04-01T00:53:18;99252.22;;;15.20;61.53
7264;BME280;3673;52.480;13.348;2023-04-01T00:55:50;99246.75;;;15.05;61.65
7264;BME280;3673;52.480;13.348;2023-04-01T00:58:24;99255.59;;;15.24;61.74
7264;BME280;3673;52.480;13.348;2023-04-01T01:00:55;99250.63;;;15.16;62.16
7264;BME280;3673;52.480;13.348;2023-04-01T01:03:23;99242.78;;;15.35;61.69
7264;BME280;3673;52.480;13.348;2023-04-01T01:06:20;99251.94;;;15.26;61.92
7264;BME280;3673;52.480;13.348;2023-04-01T01:11:57;99252.94;;;15.04;61.88
7264;BME280;3673;52.480;13.348;2023-04-01T01:14:39;99251.22;;;15.23;61.89
7264;BME280;3673;52.480;13.348;2023-04-01T01:17:19;99247.06;;;15.37;61.49
7264;BME280;3673;52.480;13.348;2023-04-01T01:23:38;99252.00;;;14.84;62.84
7264;BME280;3673;52.480;13.348;2023-04-01T01:29:33;99257.63;;;14.97;63.13
7264;BME280;3673;52.480;13.348;2023-04-01T01:32:15;99255.22;;;14.71;63.45
7264;BME280;3673;52.480;13.348;2023-04-01T01:34:52;99262.53;;;15.05;63.45
7264;BME280;3673;52.480;13.348;2023-04-01T01:37:25;99261.53;;;14.67;63.67
7264;BME280;3673;52.480;13.348;2023-04-01T01:39:57;99254.63;;;14.84;63.09
7264;BME280;3673;52.480;13.348;2023-04-01T01:42:26;99257.88;;;15.11;62.52
7264;BME280;3673;52.480;13.348;2023-04-01T01:44:56;99258.72;;;15.32;62.02
7264;BME280;3673;52.480;13.348;2023-04-01T01:47:25;99253.16;;;15.38;61.25
7264;BME280;3673;52.480;13.348;2023-04-01T01:49:54;99256.22;;;15.49;60.93
7264;BME280;3673;52.480;13.348;2023-04-01T01:52:24;99254.75;;;15.42;60.73
7264;BME280;3673;52.480;13.348;2023-04-01T01:54:53;99261.63;;;15.06;61.75
7264;BME280;3673;52.480;13.348;2023-04-01T01:57:24;99262.59;;;15.43;61.01
7264;BME280;3673;52.480;13.348;2023-04-01T01:59:54;99260.31;;;15.36;60.74
7264;BME280;3673;52.480;13.348;2023-04-01T02:02:23;99265.13;;;15.26;61.27
7264;BME280;3673;52.480;13.348;2023-04-01T02:04:51;99252.59;;;15.52;60.72
7264;BME280;3673;52.480;13.348;2023-04-01T02:07:25;99260.44;;;15.53;60.84
7264;BME280;3673;52.480;13.348;2023-04-01T02:09:54;99261.31;;;15.33;61.39
7264;BME280;3673;52.480;13.348;2023-04-01T02:12:22;99263.34;;;15.47;61.09
7264;BME280;3673;52.480;13.348;2023-04-01T02:14:52;99261.03;;;15.39;60.99
7264;BME280;3673;52.480;13.348;2023-04-01T02:17:23;99261.59;;;15.46;60.85
7264;BME280;3673;52.480;13.348;2023-04-01T02:19:56;99270.13;;;15.32;61.08
7264;BME280;3673;52.480;13.348;2023-04-01T02:22:28;99264.94;;;15.31;61.37
7264;BME280;3673;52.480;13.348;2023-04-01T02:25:01;99263.63;;;15.21;61.23
7264;BME280;3673;52.480;13.348;2023-04-01T02:27:30;99268.22;;;15.36;60.98
7264;BME280;3673;52.480;13.348;2023-04-01T02:29:57;99271.38;;;15.44;60.83
7264;BME280;3673;52.480;13.348;2023-04-01T02:32:25;99279.16;;;15.47;60.66
7264;BME280;3673;52.480;13.348;2023-04-01T02:34:54;99278.81;;;15.34;61.01
7264;BME280;3673;52.480;13.348;2023-04-01T02:37:21;99280.91;;;15.46;60.57
7264;BME280;3673;52.480;13.348;2023-04-01T02:39:49;99274.66;;;15.29;60.59
7264;BME280;3673;52.480;13.348;2023-04-01T02:42:16;99274.06;;;15.22;61.14
7264;BME280;3673;52.480;13.348;2023-04-01T02:44:42;99280.16;;;15.24;61.36
7264;BME280;3673;52.480;13.348;2023-04-01T02:47:09;99281.38;;;15.16;61.39
7264;BME280;3673;52.480;13.348;2023-04-01T02:49:36;99280.59;;;15.14;61.59
7264;BME280;3673;52.480;13.348;2023-04-01T02:52:03;99284.03;;;15.16;61.27
7264;BME280;3673;52.480;13.348;2023-04-01T02:54:30;99285.88;;;15.14;61.51
7264;BME280;3673;52.480;13.348;2023-04-01T02:56:58;99287.50;;;15.16;61.71
7264;BME280;3673;52.480;13.348;2023-04-01T02:59:25;99289.69;;;15.27;61.61
7264;BME280;3673;52.480;13.348;2023-04-01T03:01:52;99292.47;;;15.24;61.80
7264;BME280;3673;52.480;13.348;2023-04-01T03:04:19;99296.78;;;15.25;61.34
7264;BME280;3673;52.480;13.348;2023-04-01T03:06:45;99291.88;;;15.17;61.75
7264;BME280;3673;52.480;13.348;2023-04-01T03:09:12;99295.41;;;15.16;62.30
7264;BME280;3673;52.480;13.348;2023-04-01T03:11:39;99299.66;;;15.20;61.93
7264;BME280;3673;52.480;13.348;2023-04-01T03:14:08;99296.59;;;15.29;61.96
7264;BME280;3673;52.480;13.348;2023-04-01T03:16:34;99291.59;;;15.43;61.44
7264;BME280;3673;52.480;13.348;2023-04-01T03:19:01;99297.25;;;15.34;61.54
7264;BME280;3673;52.480;13.348;2023-04-01T03:21:28;99296.78;;;15.25;61.42
7264;BME280;3673;52.480;13.348;2023-04-01T03:23:55;99291.59;;;15.23;61.73
7264;BME280;3673;52.480;13.348;2023-04-01T03:26:21;99300.16;;;15.28;61.84
7264;BME280;3673;52.480;13.348;2023-04-01T03:28:48;99297.66;;;15.25;62.07
7264;BME280;3673;52.480;13.348;2023-04-01T03:31:16;99301.47;;;15.18;62.16
7264;BME280;3673;52.480;13.348;2023-04-01T03:33:43;99298.69;;;15.21;61.59
7264;BME280;3673;52.480;13.348;2023-04-01T03:36:10;99304.28;;;14.93;61.86
7264;BME280;3673;52.480;13.348;2023-04-01T03:38:38;99312.41;;;15.09;61.68
7264;BME280;3673;52.480;13.348;2023-04-01T03:41:05;99309.19;;;15.23;61.30
7264;BME280;3673;52.480;13.348;2023-04-01T03:43:32;99312.38;;;15.31;60.87
7264;BME280;3673;52.480;13.348;2023-04-01T03:45:59;99316.94;;;15.26;61.07
7264;BME280;3673;52.480;13.348;2023-04-01T03:48:27;99319.25;;;15.13;61.27
7264;BME280;3673;52.480;13.348;2023-04-01T03:50:54;99320.63;;;15.22;61.61
7264;BME280;3673;52.480;13.348;2023-04-01T03:53:21;99314.47;;;15.23;61.53
7264;BME280;3673;52.480;13.348;2023-04-01T03:55:47;99320.19;;;15.32;61.32
7264;BME280;3673;52.480;13.348;2023-04-01T03:58:17;99321.19;;;15.30;61.29
7264;BME280;3673;52.480;13.348;2023-04-01T04:00:44;99326.50;;;15.28;61.24
7264;BME280;3673;52.480;13.348;2023-04-01T04:03:11;99321.22;;;15.28;61.16
7264;BME280;3673;52.480;13.348;2023-04-01T04:05:46;99335.53;;;15.23;61.13
7264;BME280;3673;52.480;13.348;2023-04-01T04:08:13;99328.16;;;15.31;61.05
7264;BME280;3673;52.480;13.348;2023-04-01T04:10:40;99331.59;;;15.33;61.38
7264;BME280;3673;52.480;13.348;2023-04-01T04:13:07;99340.53;;;15.29;61.80
7264;BME280;3673;52.480;13.348;2023-04-01T04:15:34;99334.38;;;15.08;61.96
7264;BME280;3673;52.480;13.348;2023-04-01T04:18:01;99334.78;;;14.99;61.76
7264;BME280;3673;52.480;13.348;2023-04-01T04:20:28;99344.88;;;15.10;61.77
7264;BME280;3673;52.480;13.348;2023-04-01T04:22:56;99337.31;;;15.22;61.29
7264;BME280;3673;52.480;13.348;2023-04-01T04:25:22;99349.84;;;15.37;61.02
7264;BME280;3673;52.480;13.348;2023-04-01T04:27:49;99342.25;;;15.30;61.38
7264;BME280;3673;52.480;13.348;2023-04-01T04:30:16;99339.94;;;15.22;61.68
7264;BME280;3673;52.480;13.348;2023-04-01T04:32:43;99342.56;;;15.22;62.09
7264;BME280;3673;52.480;13.348;2023-04-01T04:35:10;99350.78;;;15.15;62.39
7264;BME280;3673;52.480;13.348;2023-04-01T04:37:36;99345.72;;;15.10;62.43
7264;BME280;3673;52.480;13.348;2023-04-01T04:40:07;99356.13;;;15.13;62.29
7264;BME280;3673;52.480;13.348;2023-04-01T04:42:34;99353.50;;;15.13;62.25
7264;BME280;3673;52.480;13.348;2023-04-01T04:45:00;99355.09;;;15.17;62.32
7264;BME280;3673;52.480;13.348;2023-04-01T04:47:27;99359.63;;;15.14;62.27
7264;BME280;3673;52.480;13.348;2023-04-01T04:49:54;99357.56;;;15.00;62.62
7264;BME280;3673;52.480;13.348;2023-04-01T04:52:21;99361.78;;;15.04;62.50
7264;BME280;3673;52.480;13.348;2023-04-01T04:54:47;99358.78;;;15.13;62.33
7264;BME280;3673;52.480;13.348;2023-04-01T04:57:15;99355.22;;;15.14;62.57
7264;BME280;3673;52.480;13.348;2023-04-01T04:59:42;99366.81;;;15.10;62.57
7264;BME280;3673;52.480;13.348;2023-04-01T05:02:09;99359.03;;;15.07;62.86
7264;BME280;3673;52.480;13.348;2023-04-01T05:04:36;99353.28;;;15.18;62.39
7264;BME280;3673;52.480;13.348;2023-04-01T05:07:03;99362.44;;;15.09;62.52
7264;BME280;3673;52.480;13.348;2023-04-01T05:09:30;99364.09;;;15.12;62.77
7264;BME280;3673;52.480;13.348;2023-04-01T05:11:57;99372.69;;;14.95;62.87
7264;BME280;3673;52.480;13.348;2023-04-01T05:14:25;99378.97;;;15.13;62.69
7264;BME280;3673;52.480;13.348;2023-04-01T05:16:52;99372.34;;;15.04;62.95
7264;BME280;3673;52.480;13.348;2023-04-01T05:19:19;99370.31;;;15.11;62.74
7264;BME280;3673;52.480;13.348;2023-04-01T05:21:46;99367.38;;;14.97;62.98
7264;BME280;3673;52.480;13.348;2023-04-01T05:24:13;99377.53;;;15.06;63.02
7264;BME280;3673;52.480;13.348;2023-04-01T05:26:40;99369.50;;;15.09;63.07
7264;BME280;3673;52.480;13.348;2023-04-01T05:29:06;99371.03;;;15.14;63.14
7264;BME280;3673;52.480;13.348;2023-04-01T05:31:35;99385.72;;;15.20;62.60
7264;BME280;3673;52.480;13.348;2023-04-01T05:34:01;99372.69;;;15.17;62.82
7264;BME280;3673;52.480;13.348;2023-04-01T05:36:28;99385.03;;;15.15;62.73
7264;BME280;3673;52.480;13.348;2023-04-01T05:38:55;99378.41;;;15.26;62.58
7264;BME280;3673;52.480;13.348;2023-04-01T05:41:22;99386.84;;;15.14;62.83
7264;BME280;3673;52.480;13.348;2023-04-01T05:43:49;99382.72;;;15.07;63.06
7264;BME280;3673;52.480;13.348;2023-04-01T05:46:16;99386.44;;;15.23;62.94
7264;BME280;3673;52.480;13.348;2023-04-01T05:48:44;99391.50;;;15.08;63.28
7264;BME280;3673;52.480;13.348;2023-04-01T05:51:12;99394.06;;;15.09;63.16
7264;BME280;3673;52.480;13.348;2023-04-01T05:53:40;99393.63;;;15.20;63.32
7264;BME280;3673;52.480;13.348;2023-04-01T05:56:07;99396.00;;;15.26;62.89
7264;BME280;3673;52.480;13.348;2023-04-01T05:58:35;99398.75;;;15.23;63.24
7264;BME280;3673;52.480;13.348;2023-04-01T06:01:03;99408.56;;;15.19;62.96
7264;BME280;3673;52.480;13.348;2023-04-01T06:03:30;99402.50;;;15.17;63.48
7264;BME280;3673;52.480;13.348;2023-04-01T06:05:58;99397.72;;;15.27;63.04
7264;BME280;3673;52.480;13.348;2023-04-01T06:08:27;99405.19;;;15.37;62.66
7264;BME280;3673;52.480;13.348;2023-04-01T06:11:04;99412.75;;;15.03;62.90
7264;BME280;3673;52.480;13.348;2023-04-01T06:14:03;99409.13;;;15.27;62.52
7264;BME280;3673;52.480;13.348;2023-04-01T06:16:46;99418.06;;;15.23;62.90
7264;BME280;3673;52.480;13.348;2023-04-01T06:19:31;99421.03;;;15.36;62.42
7264;BME280;3673;52.480;13.348;2023-04-01T06:38:03;99432.38;;;15.60;61.64
7264;BME280;3673;52.480;13.348;2023-04-01T06:40:48;99441.59;;;15.50;61.81
7264;BME280;3673;52.480;13.348;2023-04-01T06:43:25;99441.28;;;15.57;61.77
7264;BME280;3673;52.480;13.348;2023-04-01T06:45:59;99440.94;;;15.65;61.33
7264;BME280;3673;52.480;13.348;2023-04-01T06:48:42;99437.19;;;15.50;61.70
7264;BME280;3673;52.480;13.348;2023-04-01T06:51:23;99439.50;;;15.58;61.70
7264;BME280;3673;52.480;13.348;2023-04-01T06:54:00;99442.50;;;15.49;61.65
7264;BME280;3673;52.480;13.348;2023-04-01T06:56:32;99441.78;;;15.65;61.80
7264;BME280;3673;52.480;13.348;2023-04-01T06:59:04;99451.16;;;15.72;61.38
7264;BME280;3673;52.480;13.348;2023-04-01T07:01:35;99445.28;;;15.66;61.49
7264;BME280;3673;52.480;13.348;2023-04-01T07:04:09;99443.97;;;15.34;61.56
7264;BME280;3673;52.480;13.348;2023-04-01T07:06:42;99449.25;;;15.76;61.19
7264;BME280;3673;52.480;13.348;2023-04-01T07:09:13;99459.41;;;15.85;60.77
7264;BME280;3673;52.480;13.348;2023-04-01T07:11:45;99460.22;;;15.87;60.56
7264;BME280;3673;52.480;13.348;2023-04-01T07:14:18;99456.72;;;15.86;60.62
7264;BME280;3673;52.480;13.348;2023-04-01T07:16:48;99454.25;;;15.82;60.28
7264;BME280;3673;52.480;13.348;2023-04-01T07:19:22;99456.72;;;15.86;60.53
7264;BME280;3673;52.480;13.348;2023-04-01T07:21:55;99452.22;;;15.68;60.65
7264;BME280;3673;52.480;13.348;2023-04-01T07:24:29;99454.84;;;15.68;60.64
7264;BME280;3673;52.480;13.348;2023-04-01T07:26:59;99464.31;;;15.94;60.70
7264;BME280;3673;52.480;13.348;2023-04-01T07:29:27;99464.16;;;15.77;60.66
7264;BME280;3673;52.480;13.348;2023-04-01T07:32:32;99469.00;;;15.87;60.34
7264;BME280;3673;52.480;13.348;2023-04-01T07:35:17;99468.72;;;15.73;60.53
7264;BME280;3673;52.480;13.348;2023-04-01T07:38:08;99462.31;;;15.99;60.30
7264;BME280;3673;52.480;13.348;2023-04-01T07:40:46;99475.22;;;15.85;60.24
7264;BME280;3673;52.480;13.348;2023-04-01T07:43:25;99467.28;;;15.65;60.83
7264;BME280;3673;52.480;13.348;2023-04-01T07:46:05;99474.25;;;16.08;60.06
7264;BME280;3673;52.480;13.348;2023-04-01T07:48:42;99478.13;;;15.99;59.97
7264;BME280;3673;52.480;13.348;2023-04-01T07:51:18;99468.75;;;16.32;59.42
7264;BME280;3673;52.480;13.348;2023-04-01T07:53:51;99469.31;;;16.39;59.01
7264;BME280;3673;52.480;13.348;2023-04-01T07:56:26;99473.88;;;16.56;58.39
7264;BME280;3673;52.480;13.348;2023-04-01T07:59:04;99476.19;;;16.43;58.34
7264;BME280;3673;52.480;13.348;2023-04-01T08:01:39;99471.50;;;16.49;58.35
7264;BME280;3673;52.480;13.348;2023-04-01T08:04:35;99481.31;;;16.27;57.98
7264;BME280;3673;52.480;13.348;2023-04-01T08:07:12;99482.50;;;16.59;57.70
7264;BME280;3673;52.480;13.348;2023-04-01T08:09:46;99478.47;;;16.71;57.57
7264;BME280;3673;52.480;13.348;2023-04-01T08:12:27;99481.81;;;16.15;58.61
7264;BME280;3673;52.480;13.348;2023-04-01T08:15:11;99481.59;;;16.40;58.27
7264;BME280;3673;52.480;13.348;2023-04-01T08:17:47;99492.03;;;16.82;57.41
7264;BME280;3673;52.480;13.348;2023-04-01T08:20:28;99478.41;;;16.91;57.40
7264;BME280;3673;52.480;13.348;2023-04-01T08:23:04;99479.47;;;16.48;58.12
7264;BME280;3673;52.480;13.348;2023-04-01T08:25:34;99487.25;;;16.90;56.83
7264;BME280;3673;52.480;13.348;2023-04-01T08:28:11;99482.53;;;16.96;57.39
7264;BME280;3673;52.480;13.348;2023-04-01T08:30:46;99493.31;;;17.11;57.76
7264;BME280;3673;52.480;13.348;2023-04-01T08:33:19;99490.75;;;16.90;58.06
7264;BME280;3673;52.480;13.348;2023-04-01T08:35:52;99491.88;;;16.85;58.11
7264;BME280;3673;52.480;13.348;2023-04-01T08:38:27;99499.94;;;16.63;58.62
7264;BME280;3673;52.480;13.348;2023-04-01T08:41:07;99504.63;;;16.36;59.33
7264;BME280;3673;52.480;13.348;2023-04-01T08:44:11;99512.09;;;16.27;59.14
7264;BME280;3673;52.480;13.348;2023-04-01T08:47:08;99510.47;;;16.24;59.56
7264;BME280;3673;52.480;13.348;2023-04-01T08:50:06;99510.38;;;16.06;60.16
7264;BME280;3673;52.480;13.348;2023-04-01T08:52:46;99505.66;;;15.93;61.06
7264;BME280;3673;52.480;13.348;2023-04-01T08:55:38;99514.06;;;16.02;60.96
7264;BME280;3673;52.480;13.348;2023-04-01T08:58:52;99512.50;;;15.98;60.90
7264;BME280;3673;52.480;13.348;2023-04-01T09:01:36;99522.78;;;15.62;61.27
7264;BME280;3673;52.480;13.348;2023-04-01T09:04:27;99520.50;;;15.54;61.64
7264;BME280;3673;52.480;13.348;2023-04-01T09:07:25;99523.97;;;15.55;61.13
7264;BME280;3673;52.480;13.348;2023-04-01T09:10:18;99527.88;;;15.66;60.67
7264;BME280;3673;52.480;13.348;2023-04-01T09:13:16;99536.06;;;15.60;61.09
7264;BME280;3673;52.480;13.348;2023-04-01T09:16:21;99535.50;;;15.52;61.50
7264;BME280;3673;52.480;13.348;2023-04-01T09:19:08;99530.97;;;15.56;61.54
7264;BME280;3673;52.480;13.348;2023-04-01T09:22:15;99545.38;;;15.45;62.11
7264;BME280;3673;52.480;13.348;2023-04-01T09:25:15;99543.28;;;15.32;62.43
7264;BME280;3673;52.480;13.348;2023-04-01T09:27:56;99545.13;;;15.53;61.84
7264;BME280;3673;52.480;13.348;2023-04-01T09:30:34;99560.41;;;15.43;62.04
7264;BME280;3673;52.480;13.348;2023-04-01T09:34:00;99565.28;;;15.09;62.28
7264;BME280;3673;52.480;13.348;2023-04-01T09:36:44;99559.34;;;15.04;61.96
7264;BME280;3673;52.480;13.348;2023-04-01T09:39:37;99571.41;;;15.10;61.75
7264;BME280;3673;52.480;13.348;2023-04-01T09:42:29;99567.56;;;14.95;61.97
7264;BME280;3673;52.480;13.348;2023-04-01T09:45:13;99571.88;;;14.98;62.06
7264;BME280;3673;52.480;13.348;2023-04-01T09:48:00;99581.97;;;15.08;61.89
7264;BME280;3673;52.480;13.348;2023-04-01T09:50:44;99582.84;;;15.09;62.10
7264;BME280;3673;52.480;13.348;2023-04-01T09:53:25;99581.44;;;15.00;62.45
7264;BME280;3673;52.480;13.348;2023-04-01T10:00:05;99595.03;;;15.11;62.57
7264;BME280;3673;52.480;13.348;2023-04-01T10:06:20;99594.19;;;15.11;62.66
7264;BME280;3673;52.480;13.348;2023-04-01T10:09:33;99599.41;;;15.12;62.05
7264;BME280;3673;52.480;13.348;2023-04-01T10:12:47;99605.56;;;15.11;61.93
7264;BME280;3673;52.480;13.348;2023-04-01T10:15:39;99601.25;;;14.87;61.94
7264;BME280;3673;52.480;13.348;2023-04-01T10:19:02;99610.09;;;14.84;62.65
7264;BME280;3673;52.480;13.348;2023-04-01T10:21:56;99609.91;;;15.14;61.36
7264;BME280;3673;52.480;13.348;2023-04-01T10:25:01;99612.66;;;15.11;61.33
7264;BME280;3673;52.480;13.348;2023-04-01T10:28:21;99616.94;;;15.13;61.14
7264;BME280;3673;52.480;13.348;2023-04-01T10:34:40;99620.47;;;15.12;61.37
7264;BME280;3673;52.480;13.348;2023-04-01T10:40:35;99617.94;;;15.09;60.53
7264;BME280;3673;52.480;13.348;2023-04-01T10:43:46;99634.97;;;15.01;60.39
7264;BME280;3673;52.480;13.348;2023-04-01T10:46:39;99629.25;;;15.13;60.61
7264;BME280;3673;52.480;13.348;2023-04-01T10:49:44;99632.50;;;15.19;60.31
7264;BME280;3673;52.480;13.348;2023-04-01T10:52:51;99618.66;;;15.14;60.29
7264;BME280;3673;52.480;13.348;2023-04-01T10:55:44;99630.53;;;15.01;60.60
7264;BME280;3673;52.480;13.348;2023-04-01T10:58:59;99634.44;;;14.91;60.20
7264;BME280;3673;52.480;13.348;2023-04-01T11:05:18;99636.34;;;15.11;59.62
7264;BME280;3673;52.480;13.348;2023-04-01T11:11:55;99637.84;;;15.41;59.44
7264;BME280;3673;52.480;13.348;2023-04-01T11:15:16;99650.19;;;15.16;60.00
7264;BME280;3673;52.480;13.348;2023-04-01T11:24:35;99657.44;;;15.34;59.02
7264;BME280;3673;52.480;13.348;2023-04-01T11:27:20;99653.56;;;15.42;59.45
7264;BME280;3673;52.480;13.348;2023-04-01T11:33:11;99660.56;;;15.43;59.28
7264;BME280;3673;52.480;13.348;2023-04-01T11:36:11;99669.34;;;15.44;59.56
7264;BME280;3673;52.480;13.348;2023-04-01T11:39:03;99677.47;;;15.38;59.24
7264;BME280;3673;52.480;13.348;2023-04-01T11:41:40;99679.81;;;15.45;59.50
7264;BME280;3673;52.480;13.348;2023-04-01T11:44:19;99679.03;;;15.43;59.94
7264;BME280;3673;52.480;13.348;2023-04-01T11:47:14;99685.03;;;15.24;59.73
7264;BME280;3673;52.480;13.348;2023-04-01T11:50:03;99685.59;;;15.09;59.41
7264;BME280;3673;52.480;13.348;2023-04-01T11:53:08;99690.69;;;14.88;58.75
7264;BME280;3673;52.480;13.348;2023-04-01T11:55:50;99700.00;;;14.99;59.13
7264;BME280;3673;52.480;13.348;2023-04-01T11:58:48;99705.59;;;15.14;59.01
7264;BME280;3673;52.480;13.348;2023-04-01T12:01:36;99707.53;;;15.09;59.27
7264;BME280;3673;52.480;13.348;2023-04-01T12:04:34;99706.38;;;14.91;59.19
7264;BME280;3673;52.480;13.348;2023-04-01T12:07:15;99718.03;;;14.84;59.24
7264;BME280;3673;52.480;13.348;2023-04-01T12:09:56;99715.53;;;14.81;59.36
7264;BME280;3673;52.480;13.348;2023-04-01T12:12:32;99720.00;;;14.53;59.27
7264;BME280;3673;52.480;13.348;2023-04-01T12:15:17;99716.28;;;14.32;59.67
7264;BME280;3673;52.480;13.348;2023-04-01T12:17:55;99727.81;;;14.56;60.00
7264;BME280;3673;52.480;13.348;2023-04-01T12:20:34;99726.53;;;14.41;59.77
7264;BME280;3673;52.480;13.348;2023-04-01T12:26:30;99735.00;;;14.77;58.99
7264;BME280;3673;52.480;13.348;2023-04-01T12:29:14;99725.94;;;14.60;59.56
7264;BME280;3673;52.480;13.348;2023-04-01T12:31:52;99732.28;;;14.26;59.55
7264;BME280;3673;52.480;13.348;2023-04-01T12:34:49;99734.06;;;14.52;59.11
7264;BME280;3673;52.480;13.348;2023-04-01T12:37:31;99741.38;;;14.70;58.80
7264;BME280;3673;52.480;13.348;2023-04-01T12:40:44;99737.03;;;14.68;59.49
7264;BME280;3673;52.480;13.348;2023-04-01T12:43:35;99743.94;;;14.72;59.42
7264;BME280;3673;52.480;13.348;2023-04-01T12:46:15;99749.53;;;14.63;59.94
7264;BME280;3673;52.480;13.348;2023-04-01T12:49:27;99760.19;;;14.58;59.08
7264;BME280;3673;52.480;13.348;2023-04-01T12:52:09;99758.19;;;14.66;58.94
7264;BME280;3673;52.480;13.348;2023-04-01T13:01:31;99763.56;;;14.35;58.66
7264;BME280;3673;52.480;13.348;2023-04-01T13:04:39;99766.66;;;14.48;58.15
7264;BME280;3673;52.480;13.348;2023-04-01T13:07:23;99772.09;;;14.43;57.94
7264;BME280;3673;52.480;13.348;2023-04-01T13:10:01;99771.19;;;14.15;58.64
7264;BME280;3673;52.480;13.348;2023-04-01T13:12:52;99785.19;;;14.17;58.59
7264;BME280;3673;52.480;13.348;2023-04-01T13:15:30;99777.66;;;14.05;58.92
7264;BME280;3673;52.480;13.348;2023-04-01T13:18:13;99781.50;;;14.21;58.44
7264;BME280;3673;52.480;13.348;2023-04-01T13:20:48;99781.34;;;14.27;58.54
7264;BME280;3673;52.480;13.348;2023-04-01T13:23:32;99788.44;;;13.96;59.50
7264;BME280;3673;52.480;13.348;2023-04-01T13:26:11;99794.50;;;13.98;59.43
7264;BME280;3673;52.480;13.348;2023-04-01T13:28:44;99796.50;;;14.19;59.20
7264;BME280;3673;52.480;13.348;2023-04-01T13:31:29;99808.09;;;14.14;59.23
7264;BME280;3673;52.480;13.348;2023-04-01T13:34:16;99811.47;;;13.88;59.72
7264;BME280;3673;52.480;13.348;2023-04-01T13:36:56;99807.13;;;13.87;59.04
7264;BME280;3673;52.480;13.348;2023-04-01T13:39:42;99810.56;;;13.58;59.30
7264;BME280;3673;52.480;13.348;2023-04-01T13:42:18;99810.56;;;13.89;58.87
7264;BME280;3673;52.480;13.348;2023-04-01T13:44:55;99820.38;;;14.13;58.22
7264;BME280;3673;52.480;13.348;2023-04-01T13:48:10;99824.88;;;13.79;59.40
7264;BME280;3673;52.480;13.348;2023-04-01T13:50:55;99821.16;;;13.57;59.35
7264;BME280;3673;52.480;13.348;2023-04-01T13:57:38;99825.66;;;13.82;59.35
7264;BME280;3673;52.480;13.348;2023-04-01T14:00:27;99837.94;;;13.82;59.13
7264;BME280;3673;52.480;13.348;2023-04-01T14:03:30;99834.81;;;13.68;59.16
7264;BME280;3673;52.480;13.348;2023-04-01T14:06:23;99845.19;;;13.74;59.30
7264;BME280;3673;52.480;13.348;2023-04-01T14:09:32;99843.50;;;13.40;59.25
7264;BME280;3673;52.480;13.348;2023-04-01T14:12:08;99853.22;;;13.68;58.42
7264;BME280;3673;52.480;13.348;2023-04-01T14:14:56;99852.13;;;13.76;58.22
7264;BME280;3673;52.480;13.348;2023-04-01T14:17:43;99854.56;;;13.52;58.43
7264;BME280;3673;52.480;13.348;2023-04-01T14:20:27;99856.03;;;13.62;57.86
7264;BME280;3673;52.480;13.348;2023-04-01T14:23:25;99859.88;;;13.50;58.18
7264;BME280;3673;52.480;13.348;2023-04-01T14:26:35;99865.66;;;13.63;58.18
7264;BME280;3673;52.480;13.348;2023-04-01T14:29:21;99873.72;;;13.55;57.86
7264;BME280;3673;52.480;13.348;2023-04-01T14:32:02;99880.47;;;13.65;57.90
7264;BME280;3673;52.480;13.348;2023-04-01T14:34:51;99882.59;;;13.51;57.41
7264;BME280;3673;52.480;13.348;2023-04-01T14:38:05;99881.06;;;13.44;57.59
7264;BME280;3673;52.480;13.348;2023-04-01T14:40:50;99880.00;;;13.17;57.78
7264;BME280;3673;52.480;13.348;2023-04-01T14:44:01;99883.44;;;13.19;58.82
7264;BME280;3673;52.480;13.348;2023-04-01T14:49:51;99893.34;;;13.74;57.80
7264;BME280;3673;52.480;13.348;2023-04-01T14:52:25;99903.03;;;13.74;57.77
7264;BME280;3673;52.480;13.348;2023-04-01T14:54:56;99911.69;;;13.77;57.15
7264;BME280;3673;52.480;13.348;2023-04-01T14:57:27;99908.38;;;13.71;57.77
7264;BME280;3673;52.480;13.348;2023-04-01T15:00:00;99909.72;;;13.53;56.84
7264;BME280;3673;52.480;13.348;2023-04-01T15:02:41;99912.69;;;13.73;57.44
7264;BME280;3673;52.480;13.348;2023-04-01T15:05:24;99916.41;;;13.65;56.70
7264;BME280;3673;52.480;13.348;2023-04-01T15:08:06;99915.47;;;13.67;57.05
7264;BME280;3673;52.480;13.348;2023-04-01T15:11:07;99919.44;;;13.82;57.93
7264;BME280;3673;52.480;13.348;2023-04-01T15:16:56;99930.69;;;14.18;56.16
7264;BME280;3673;52.480;13.348;2023-04-01T15:19:38;99932.03;;;14.02;55.88
7264;BME280;3673;52.480;13.348;2023-04-01T15:22:32;99930.16;;;13.74;56.45
7264;BME280;3673;52.480;13.348;2023-04-01T15:25:31;99947.38;;;13.18;56.48
7264;BME280;3673;52.480;13.348;2023-04-01T15:28:08;99947.03;;;13.66;56.58